createdAt,value
2019-01-09T00:02:25.230Z,95.79
2019-01-09T00:07:31.350Z,95.98
2019-01-09T00:12:36.667Z,96.45
2019-01-09T00:17:41.836Z,96.13
2019-01-09T00:22:47.079Z,96.10
2019-01-09T00:27:53.685Z,96.49
2019-01-09T00:32:58.907Z,96.91
2019-01-09T00:38:04.249Z,96.61
2019-01-09T00:43:09.755Z,96.87
2019-01-09T00:48:15.343Z,96.87
2019-01-09T00:53:21.467Z,97.16
2019-01-09T00:58:26.698Z,97.17
2019-01-09T01:04:27.872Z,97.36
2019-01-09T01:10:04.459Z,97.07
2019-01-09T01:15:49.138Z,97.01
2019-01-09T01:21:08.371Z,97.33
2019-01-09T01:26:57.245Z,97.58
2019-01-09T01:32:52.802Z,96.93
2019-01-09T01:38:38.470Z,96.91
2019-01-09T01:44:11.684Z,96.39
2019-01-09T01:49:45.671Z,96.81
2019-01-09T01:55:28.023Z,96.89
2019-01-09T02:01:05.660Z,96.48
2019-01-09T02:06:33.973Z,96.98
2019-01-09T02:12:20.780Z,97.19
2019-01-09T02:17:57.096Z,97.36
2019-01-09T02:23:37.644Z,97.72
2019-01-09T02:29:04.698Z,97.77
2019-01-09T02:34:10.207Z,97.95
2019-01-09T02:39:15.846Z,97.66
2019-01-09T02:44:21.931Z,97.53
2019-01-09T02:49:27.078Z,97.39
2019-01-09T02:54:32.656Z,97.33
2019-01-09T02:59:37.821Z,97.30
2019-01-09T03:04:43.320Z,96.55
2019-01-09T03:09:49.488Z,96.59
2019-01-09T03:14:55.351Z,96.14
2019-01-09T03:20:00.534Z,96.48
2019-01-09T03:25:06.296Z,96.55
2019-01-09T03:30:12.609Z,96.45
2019-01-09T03:35:17.781Z,96.63
2019-01-09T03:40:23.283Z,96.76
2019-01-09T03:45:28.945Z,96.54
2019-01-09T03:50:34.167Z,96.68
2019-01-09T03:55:39.634Z,96.67
2019-01-09T04:00:44.901Z,96.62
2019-01-09T04:05:50.345Z,96.98
2019-01-09T04:10:55.523Z,96.80
2019-01-09T04:16:01.704Z,97.01
2019-01-09T04:21:06.909Z,97.07
2019-01-09T04:26:12.475Z,97.58
2019-01-09T04:31:17.528Z,97.47
2019-01-09T04:36:22.744Z,97.66
2019-01-09T04:41:27.891Z,97.49
2019-01-09T04:46:33.286Z,97.79
2019-01-09T04:51:38.388Z,97.64
2019-01-09T04:56:44.684Z,97.58
2019-01-09T05:01:50.090Z,97.60
2019-01-09T05:07:00.464Z,97.50
2019-01-09T05:12:02.588Z,97.64
2019-01-09T05:17:07.725Z,97.55
2019-01-09T05:22:13.224Z,97.23
2019-01-09T05:27:18.310Z,97.31
2019-01-09T05:32:23.706Z,97.50
2019-01-09T05:37:28.775Z,97.07
2019-01-09T05:42:34.280Z,97.53
2019-01-09T05:47:39.989Z,97.66
2019-01-09T05:52:45.153Z,97.43
2019-01-09T05:57:50.295Z,97.39
2019-01-09T06:02:55.559Z,97.66
2019-01-09T06:08:00.689Z,97.86
2019-01-09T06:13:05.851Z,98.01
2019-01-09T06:18:11.325Z,97.87
2019-01-09T06:23:16.557Z,97.97
2019-01-09T06:28:21.824Z,98.11
2019-01-09T06:33:26.999Z,97.89
2019-01-09T06:38:32.132Z,98.44
2019-01-09T06:43:37.571Z,98.34
2019-01-09T06:48:42.722Z,98.24
2019-01-09T06:53:47.753Z,98.32
2019-01-09T06:58:52.886Z,98.11
2019-01-09T07:03:58.344Z,98.38
2019-01-09T07:09:04.281Z,98.45
2019-01-09T07:14:09.527Z,98.39
2019-01-09T07:19:14.693Z,98.49
2019-01-09T07:24:19.935Z,98.57
2019-01-09T07:29:25.082Z,98.54
2019-01-09T07:34:30.229Z,98.55
2019-01-09T07:39:35.303Z,98.63
2019-01-09T07:44:40.487Z,98.74
2019-01-09T07:49:45.826Z,98.79
2019-01-09T07:54:50.938Z,98.75
2019-01-09T07:59:56.002Z,98.57
2019-01-09T08:05:02.070Z,98.28
2019-01-09T08:10:09.214Z,98.10
2019-01-09T08:15:14.360Z,97.73
2019-01-09T08:20:19.439Z,97.97
2019-01-09T08:25:24.586Z,97.69
2019-01-09T08:30:29.732Z,97.30
2019-01-09T08:35:34.804Z,97.42
2019-01-09T08:40:40.951Z,97.55
2019-01-09T08:45:46.311Z,97.89
2019-01-09T08:50:52.239Z,97.58
2019-01-09T08:55:57.805Z,97.73
2019-01-09T09:01:03.034Z,97.09
2019-01-09T09:06:08.890Z,96.39
2019-01-09T09:11:15.288Z,96.75
2019-01-09T09:16:21.293Z,96.91
2019-01-09T09:21:27.085Z,97.12
2019-01-09T09:26:32.941Z,96.97
2019-01-09T09:31:38.095Z,97.45
2019-01-09T09:36:43.267Z,97.33
2019-01-09T09:41:48.406Z,97.32
2019-01-09T09:46:53.661Z,97.47
2019-01-09T09:51:58.822Z,97.58
2019-01-09T09:57:04.230Z,97.39
2019-01-09T10:02:09.398Z,97.59
2019-01-09T10:07:14.538Z,97.77
2019-01-09T10:12:19.988Z,97.70
2019-01-09T10:17:25.111Z,97.31
2019-01-09T10:22:30.255Z,97.24
2019-01-09T10:27:35.776Z,96.90
2019-01-09T10:32:41.322Z,96.59
2019-01-09T10:37:47.479Z,96.41
2019-01-09T10:42:52.608Z,96.72
2019-01-09T10:47:57.959Z,96.84
2019-01-09T10:53:03.060Z,96.78
2019-01-09T10:58:08.193Z,96.92
2019-01-09T11:03:13.610Z,96.66
2019-01-09T11:08:18.682Z,97.09
2019-01-09T11:13:23.841Z,96.98
2019-01-09T11:18:28.995Z,96.86
2019-01-09T11:23:34.232Z,96.73
2019-01-09T11:28:39.665Z,96.88
2019-01-09T11:33:45.299Z,96.78
2019-01-09T11:38:55.721Z,96.77
2019-01-09T11:43:58.155Z,96.58
2019-01-09T11:49:03.644Z,97.07
2019-01-09T11:54:09.179Z,96.70
2019-01-09T11:59:14.319Z,96.52
2019-01-09T12:04:19.806Z,96.75
2019-01-09T12:09:25.670Z,96.37
2019-01-09T12:14:30.816Z,95.36
2019-01-09T12:19:36.032Z,96.19
2019-01-09T12:24:41.424Z,95.41
2019-01-09T12:29:46.873Z,95.77
2019-01-09T12:34:52.542Z,95.55
2019-01-09T12:39:57.621Z,95.88
2019-01-09T12:45:02.813Z,95.63
2019-01-09T12:50:10.107Z,95.70
2019-01-09T12:55:15.417Z,96.22
2019-01-09T13:00:22.927Z,96.43
2019-01-09T13:05:29.383Z,96.16
2019-01-09T13:10:34.844Z,96.18
2019-01-09T13:15:39.931Z,95.76
2019-01-09T13:20:45.071Z,95.76
2019-01-09T13:25:51.759Z,96.33
2019-01-09T13:30:58.365Z,96.22
2019-01-09T13:36:03.739Z,95.87
2019-01-09T13:41:09.246Z,95.81
2019-01-09T13:46:14.671Z,96.61
2019-01-09T13:51:20.483Z,97.02
2019-01-09T13:56:25.617Z,97.25
2019-01-09T14:01:31.107Z,96.53
2019-01-09T14:06:36.237Z,96.14
2019-01-09T14:11:42.291Z,96.49
2019-01-09T14:16:47.547Z,96.39
2019-01-09T14:21:52.789Z,96.48
2019-01-09T14:26:57.993Z,96.58
2019-01-09T14:32:03.105Z,96.92
2019-01-09T14:37:09.225Z,96.98
2019-01-09T14:42:14.489Z,96.82
2019-01-09T14:47:19.683Z,96.52
2019-01-09T14:52:25.148Z,96.41
2019-01-09T14:57:30.992Z,96.29
2019-01-09T15:02:36.168Z,96.16
2019-01-09T15:07:41.630Z,96.09
2019-01-09T15:12:47.583Z,96.17
2019-01-09T15:17:53.640Z,95.69
2019-01-09T15:22:58.802Z,95.77
2019-01-09T15:28:03.953Z,95.92
2019-01-09T15:33:09.424Z,96.36
2019-01-09T15:38:14.574Z,96.26
2019-01-09T15:43:19.901Z,96.25
2019-01-09T15:48:25.177Z,96.05
2019-01-09T15:53:30.423Z,95.94
2019-01-09T15:58:35.887Z,96.13
2019-01-09T16:03:41.051Z,96.21
2019-01-09T16:08:46.240Z,96.33
2019-01-09T16:13:52.336Z,96.35
2019-01-09T16:18:57.586Z,95.85
2019-01-09T16:24:02.742Z,95.86
2019-01-09T16:29:07.915Z,95.78
2019-01-09T16:34:13.286Z,95.87
2019-01-09T16:39:19.700Z,95.29
2019-01-09T16:44:24.779Z,96.21
2019-01-09T16:49:29.943Z,95.67
2019-01-09T16:54:36.293Z,96.16
2019-01-09T16:59:41.764Z,95.70
2019-01-09T17:04:48.077Z,95.67
2019-01-09T17:09:53.614Z,96.06
2019-01-09T17:14:59.581Z,95.92
2019-01-09T17:20:06.186Z,96.25
2019-01-09T17:25:12.672Z,96.31
2019-01-09T17:30:21.748Z,96.27
2019-01-09T17:35:27.100Z,96.03
2019-01-09T17:40:40.661Z,96.04
2019-01-09T17:45:42.553Z,95.87
2019-01-09T17:50:48.102Z,95.82
2019-01-09T17:55:53.273Z,95.95
2019-01-09T18:00:58.883Z,95.24
2019-01-09T18:06:04.519Z,95.35
2019-01-09T18:11:09.707Z,95.47
2019-01-09T18:16:15.239Z,95.18
2019-01-09T18:21:20.753Z,94.84
2019-01-09T18:26:26.122Z,95.26
2019-01-09T18:31:43.670Z,95.05
2019-01-09T18:37:03.004Z,95.27
2019-01-09T18:42:38.571Z,95.71
2019-01-09T18:48:30.798Z,95.48
2019-01-09T18:53:45.044Z,95.08
2019-01-09T18:58:51.167Z,95.22
2019-01-09T19:03:56.416Z,95.43
2019-01-09T19:09:02.277Z,95.23
2019-01-09T19:14:08.776Z,95.11
2019-01-09T19:19:14.697Z,95.54
2019-01-09T19:24:20.114Z,95.32
2019-01-09T19:29:26.512Z,95.40
2019-01-09T19:34:31.833Z,95.31
2019-01-09T19:39:36.977Z,95.20
2019-01-09T19:44:42.119Z,95.20
2019-01-09T19:49:48.103Z,95.41
2019-01-09T19:54:54.373Z,95.94
2019-01-09T20:00:01.055Z,95.65
2019-01-09T20:05:06.448Z,95.40
2019-01-09T20:10:15.046Z,95.55
2019-01-09T20:15:20.773Z,95.66
2019-01-09T20:20:26.013Z,95.54
2019-01-09T20:25:32.118Z,95.67
2019-01-09T20:30:37.341Z,95.97
2019-01-09T20:35:42.648Z,95.88
2019-01-09T20:40:48.067Z,96.27
2019-01-09T20:45:53.507Z,96.39
2019-01-09T20:50:58.662Z,96.30
2019-01-09T20:56:04.405Z,96.50
2019-01-09T21:01:10.378Z,96.15
2019-01-09T21:06:16.147Z,96.06
2019-01-09T21:11:21.405Z,95.84
2019-01-09T21:16:26.618Z,95.70
2019-01-09T21:21:31.999Z,95.29
2019-01-09T21:26:37.428Z,95.57
2019-01-09T21:31:42.665Z,95.62
2019-01-09T21:36:48.094Z,95.88
2019-01-09T21:41:53.833Z,95.89
2019-01-09T21:47:00.095Z,96.00
2019-01-09T21:52:05.257Z,95.52
2019-01-09T21:57:10.432Z,95.80
2019-01-09T22:02:15.579Z,95.94
2019-01-09T22:07:20.665Z,95.67
2019-01-09T22:12:26.131Z,95.39
2019-01-09T22:17:31.285Z,95.75
2019-01-09T22:22:36.466Z,95.90
2019-01-09T22:27:42.169Z,96.21
2019-01-09T22:32:47.416Z,95.99
2019-01-09T22:37:52.655Z,95.86
2019-01-09T22:42:58.387Z,95.77
2019-01-09T22:48:03.531Z,95.82
2019-01-09T22:53:08.699Z,95.97
2019-01-09T22:58:13.754Z,96.00
2019-01-09T23:03:18.934Z,95.83
2019-01-09T23:08:24.159Z,95.74
2019-01-09T23:13:29.296Z,95.56
2019-01-09T23:18:34.754Z,95.90
2019-01-09T23:23:39.892Z,95.80
2019-01-09T23:28:45.041Z,95.95
2019-01-09T23:33:50.261Z,96.23
2019-01-09T23:38:55.403Z,96.33
2019-01-09T23:44:00.462Z,96.48
2019-01-09T23:49:05.607Z,96.48
2019-01-09T23:54:10.876Z,96.50
2019-01-09T23:59:16.023Z,96.42
